Silverlake, Washington
Current Conditions -  °F | °C
As of 4:15 PM on Saturday 20 Dec 2014 (Local Time) from KKLS Reporting Station
Overcast Overcast  
Wind Chill: 52°   Ceiling: 2700
Heat Index: 52°   Visibility: 10mi
Dew Point: 48°   Wind: 15mph
Humidity: 88%   Direction: 140°SE
Pressure: 29.63"   Gusts: 23mph
Location:  46.31°N, 122.77°W
Report Text: KKLS 210015Z 14013G20KT 10SM FEW012 BKN027 OVC043 11/09 A2963 RMK AO1 P0001
Loading
Personal Weather Stations






























Interactive Weather Map New forecast layout! Learn more

10-Day Weather Forecast

Advertisements
Track Severe Weather on mobile